sensor_id;sensor_type;location;lat;lon;timestamp;temperature;humidity
26063;DHT22;13837;48.562;12.108;2022-12-18T00:01:27;-4.30;99.90
26063;DHT22;13837;48.562;12.108;2022-12-18T00:03:54;-4.20;99.90
26063;DHT22;13837;48.562;12.108;2022-12-18T00:06:21;-4.20;99.90
26063;DHT22;13837;48.562;12.108;2022-12-18T00:08:47;-4.20;99.90
26063;DHT22;13837;48.562;12.108;2022-12-18T00:11:15;-4.20;99.90
26063;DHT22;13837;48.562;12.108;2022-12-18T00:13:42;-4.20;99.90
26063;DHT22;13837;48.562;12.108;2022-12-18T00:16:12;-4.20;99.90
26063;DHT22;13837;48.562;12.108;2022-12-18T00:18:38;-4.20;99.90
26063;DHT22;13837;48.562;12.108;2022-12-18T00:21:05;-4.20;99.90
26063;DHT22;13837;48.562;12.108;2022-12-18T00:23:32;-4.10;99.90
26063;DHT22;13837;48.562;12.108;2022-12-18T00:26:00;-4.10;99.90
26063;DHT22;13837;48.562;12.108;2022-12-18T00:28:27;-4.10;99.90
26063;DHT22;13837;48.562;12.108;2022-12-18T00:31:02;-4.10;99.90
26063;DHT22;13837;48.562;12.108;2022-12-18T00:33:28;-4.10;99.90
26063;DHT22;13837;48.562;12.108;2022-12-18T00:35:54;-4.20;99.90
26063;DHT22;13837;48.562;12.108;2022-12-18T00:38:19;-4.20;99.90
26063;DHT22;13837;48.562;12.108;2022-12-18T00:40:45;-4.20;99.90
26063;DHT22;13837;48.562;12.108;2022-12-18T00:43:11;-4.20;99.90
26063;DHT22;13837;48.562;12.108;2022-12-18T00:45:37;-4.10;99.90
26063;DHT22;13837;48.562;12.108;2022-12-18T00:48:03;-4.10;99.90
26063;DHT22;13837;48.562;12.108;2022-12-18T00:50:29;-4.10;99.90
26063;DHT22;13837;48.562;12.108;2022-12-18T00:52:55;-4.20;99.90
26063;DHT22;13837;48.562;12.108;2022-12-18T00:55:21;-4.20;99.90
26063;DHT22;13837;48.562;12.108;2022-12-18T00:57:46;-4.10;99.90
26063;DHT22;13837;48.562;12.108;2022-12-18T01:00:14;-4.20;99.90
26063;DHT22;13837;48.562;12.108;2022-12-18T01:02:41;-4.10;99.90
26063;DHT22;13837;48.562;12.108;2022-12-18T01:05:08;-4.10;99.90
26063;DHT22;13837;48.562;12.108;2022-12-18T01:07:34;-4.20;99.90
26063;DHT22;13837;48.562;12.108;2022-12-18T01:10:02;-4.10;99.90
26063;DHT22;13837;48.562;12.108;2022-12-18T01:12:28;-4.10;99.90
26063;DHT22;13837;48.562;12.108;2022-12-18T01:14:53;-4.10;99.90
26063;DHT22;13837;48.562;12.108;2022-12-18T01:17:20;-4.20;99.90
26063;DHT22;13837;48.562;12.108;2022-12-18T01:19:45;-4.20;99.90
26063;DHT22;13837;48.562;12.108;2022-12-18T01:22:11;-4.20;99.90
26063;DHT22;13837;48.562;12.108;2022-12-18T01:24:37;-4.10;99.90
26063;DHT22;13837;48.562;12.108;2022-12-18T01:27:03;-4.00;99.90
26063;DHT22;13837;48.562;12.108;2022-12-18T01:29:29;-4.00;99.90
26063;DHT22;13837;48.562;12.108;2022-12-18T01:31:55;-4.10;99.90
26063;DHT22;13837;48.562;12.108;2022-12-18T01:34:22;-4.00;99.90
26063;DHT22;13837;48.562;12.108;2022-12-18T01:36:48;-4.00;99.90
26063;DHT22;13837;48.562;12.108;2022-12-18T01:39:15;-4.00;99.90
26063;DHT22;13837;48.562;12.108;2022-12-18T01:41:42;-4.00;99.90
26063;DHT22;13837;48.562;12.108;2022-12-18T01:45:03;-4.00;99.90
26063;DHT22;13837;48.562;12.108;2022-12-18T01:47:33;-3.90;99.90
26063;DHT22;13837;48.562;12.108;2022-12-18T01:52:34;-3.90;99.90
26063;DHT22;13837;48.562;12.108;2022-12-18T01:55:04;-3.90;99.90
26063;DHT22;13837;48.562;12.108;2022-12-18T01:57:30;-3.90;99.90
26063;DHT22;13837;48.562;12.108;2022-12-18T02:00:00;-3.90;99.90
26063;DHT22;13837;48.562;12.108;2022-12-18T02:02:28;-3.80;99.90
26063;DHT22;13837;48.562;12.108;2022-12-18T02:04:55;-3.90;99.90
26063;DHT22;13837;48.562;12.108;2022-12-18T02:12:48;-3.90;99.90
26063;DHT22;13837;48.562;12.108;2022-12-18T02:15:41;-3.90;99.90
26063;DHT22;13837;48.562;12.108;2022-12-18T02:18:23;-4.00;99.90
26063;DHT22;13837;48.562;12.108;2022-12-18T02:21:40;-4.00;99.90
26063;DHT22;13837;48.562;12.108;2022-12-18T02:24:11;-4.00;99.90
26063;DHT22;13837;48.562;12.108;2022-12-18T02:26:49;-3.90;99.90
26063;DHT22;13837;48.562;12.108;2022-12-18T02:29:33;-4.00;99.90
26063;DHT22;13837;48.562;12.108;2022-12-18T02:32:02;-3.90;99.90
26063;DHT22;13837;48.562;12.108;2022-12-18T02:34:30;-3.90;99.90
26063;DHT22;13837;48.562;12.108;2022-12-18T02:36:58;-3.90;99.90
26063;DHT22;13837;48.562;12.108;2022-12-18T02:39:27;-3.80;99.90
26063;DHT22;13837;48.562;12.108;2022-12-18T02:42:00;-3.90;99.90
26063;DHT22;13837;48.562;12.108;2022-12-18T02:44:34;-3.90;99.90
26063;DHT22;13837;48.562;12.108;2022-12-18T02:47:01;-4.00;99.90
26063;DHT22;13837;48.562;12.108;2022-12-18T02:55:46;-3.80;99.90
26063;DHT22;13837;48.562;12.108;2022-12-18T02:58:32;-3.90;99.90
26063;DHT22;13837;48.562;12.108;2022-12-18T03:04:12;-3.90;99.90
26063;DHT22;13837;48.562;12.108;2022-12-18T03:06:48;-3.90;99.90
26063;DHT22;13837;48.562;12.108;2022-12-18T03:09:20;-3.90;99.90
26063;DHT22;13837;48.562;12.108;2022-12-18T03:11:56;-3.90;99.90
26063;DHT22;13837;48.562;12.108;2022-12-18T03:14:43;-3.90;99.90
26063;DHT22;13837;48.562;12.108;2022-12-18T03:17:16;-3.90;99.90
26063;DHT22;13837;48.562;12.108;2022-12-18T03:19:43;-3.90;99.90
26063;DHT22;13837;48.562;12.108;2022-12-18T03:22:12;-3.80;99.90
26063;DHT22;13837;48.562;12.108;2022-12-18T03:24:45;-3.80;99.90
26063;DHT22;13837;48.562;12.108;2022-12-18T03:27:15;-3.80;99.90
26063;DHT22;13837;48.562;12.108;2022-12-18T03:30:04;-3.80;99.90
26063;DHT22;13837;48.562;12.108;2022-12-18T03:35:15;-3.90;99.90
26063;DHT22;13837;48.562;12.108;2022-12-18T03:37:43;-3.90;99.90
26063;DHT22;13837;48.562;12.108;2022-12-18T03:40:10;-3.90;99.90
26063;DHT22;13837;48.562;12.108;2022-12-18T03:42:51;-3.90;99.90
26063;DHT22;13837;48.562;12.108;2022-12-18T03:45:27;-3.90;99.90
26063;DHT22;13837;48.562;12.108;2022-12-18T03:53:47;-3.80;99.90
26063;DHT22;13837;48.562;12.108;2022-12-18T03:56:17;-3.80;99.90
26063;DHT22;13837;48.562;12.108;2022-12-18T03:58:44;-3.80;99.90
26063;DHT22;13837;48.562;12.108;2022-12-18T04:01:23;-3.80;99.90
26063;DHT22;13837;48.562;12.108;2022-12-18T04:03:52;-3.80;99.90
26063;DHT22;13837;48.562;12.108;2022-12-18T04:06:19;-3.80;99.90
26063;DHT22;13837;48.562;12.108;2022-12-18T04:08:45;-3.90;99.90
26063;DHT22;13837;48.562;12.108;2022-12-18T04:11:15;-3.80;99.90
26063;DHT22;13837;48.562;12.108;2022-12-18T04:13:43;-3.80;99.90
26063;DHT22;13837;48.562;12.108;2022-12-18T04:16:16;-3.80;99.90
26063;DHT22;13837;48.562;12.108;2022-12-18T04:18:44;-3.80;99.90
26063;DHT22;13837;48.562;12.108;2022-12-18T04:21:10;-3.80;99.90
26063;DHT22;13837;48.562;12.108;2022-12-18T04:23:37;-3.90;99.90
26063;DHT22;13837;48.562;12.108;2022-12-18T04:26:02;-3.80;99.90
26063;DHT22;13837;48.562;12.108;2022-12-18T04:28:42;-3.80;99.90
26063;DHT22;13837;48.562;12.108;2022-12-18T04:31:08;-3.80;99.90
26063;DHT22;13837;48.562;12.108;2022-12-18T04:33:34;-3.80;99.90
26063;DHT22;13837;48.562;12.108;2022-12-18T04:36:00;-3.80;99.90
26063;DHT22;13837;48.562;12.108;2022-12-18T04:38:27;-3.80;99.90
26063;DHT22;13837;48.562;12.108;2022-12-18T04:41:00;-3.80;99.90
26063;DHT22;13837;48.562;12.108;2022-12-18T04:43:27;-3.90;99.90
26063;DHT22;13837;48.562;12.108;2022-12-18T04:45:52;-3.90;99.90
26063;DHT22;13837;48.562;12.108;2022-12-18T04:48:18;-3.90;99.90
26063;DHT22;13837;48.562;12.108;2022-12-18T04:50:46;-3.90;99.90
26063;DHT22;13837;48.562;12.108;2022-12-18T04:53:13;-3.80;99.90
26063;DHT22;13837;48.562;12.108;2022-12-18T04:55:39;-3.80;99.90
26063;DHT22;13837;48.562;12.108;2022-12-18T04:58:04;-3.80;99.90
26063;DHT22;13837;48.562;12.108;2022-12-18T05:00:30;-3.80;99.90
26063;DHT22;13837;48.562;12.108;2022-12-18T05:02:56;-3.70;99.90
26063;DHT22;13837;48.562;12.108;2022-12-18T05:05:21;-3.70;99.90
26063;DHT22;13837;48.562;12.108;2022-12-18T05:07:47;-3.70;99.90
26063;DHT22;13837;48.562;12.108;2022-12-18T05:10:13;-3.70;99.90
26063;DHT22;13837;48.562;12.108;2022-12-18T05:12:38;-3.70;99.90
26063;DHT22;13837;48.562;12.108;2022-12-18T05:15:26;-3.70;99.90
26063;DHT22;13837;48.562;12.108;2022-12-18T05:17:52;-3.60;99.90
26063;DHT22;13837;48.562;12.108;2022-12-18T05:20:18;-3.60;99.90
26063;DHT22;13837;48.562;12.108;2022-12-18T05:22:44;-3.60;99.90
26063;DHT22;13837;48.562;12.108;2022-12-18T05:25:10;-3.60;99.90
26063;DHT22;13837;48.562;12.108;2022-12-18T05:27:35;-3.60;99.90
26063;DHT22;13837;48.562;12.108;2022-12-18T05:30:01;-3.60;99.90
26063;DHT22;13837;48.562;12.108;2022-12-18T05:32:27;-3.60;99.90
26063;DHT22;13837;48.562;12.108;2022-12-18T05:34:53;-3.60;99.90
26063;DHT22;13837;48.562;12.108;2022-12-18T05:37:18;-3.60;99.90
26063;DHT22;13837;48.562;12.108;2022-12-18T05:39:44;-3.60;99.90
26063;DHT22;13837;48.562;12.108;2022-12-18T05:42:09;-3.70;99.90
26063;DHT22;13837;48.562;12.108;2022-12-18T05:44:35;-3.70;99.90
26063;DHT22;13837;48.562;12.108;2022-12-18T05:47:01;-3.70;99.90
26063;DHT22;13837;48.562;12.108;2022-12-18T05:49:27;-3.80;99.90
26063;DHT22;13837;48.562;12.108;2022-12-18T05:51:52;-3.80;99.90
26063;DHT22;13837;48.562;12.108;2022-12-18T05:54:18;-3.90;99.90
26063;DHT22;13837;48.562;12.108;2022-12-18T05:56:44;-3.90;99.90
26063;DHT22;13837;48.562;12.108;2022-12-18T05:59:09;-3.90;99.90
26063;DHT22;13837;48.562;12.108;2022-12-18T06:01:35;-3.90;99.90
26063;DHT22;13837;48.562;12.108;2022-12-18T06:04:01;-3.90;99.90
26063;DHT22;13837;48.562;12.108;2022-12-18T06:06:27;-3.90;99.90
26063;DHT22;13837;48.562;12.108;2022-12-18T06:08:55;-3.80;99.90
26063;DHT22;13837;48.562;12.108;2022-12-18T06:11:23;-3.80;99.90
26063;DHT22;13837;48.562;12.108;2022-12-18T06:13:56;-3.80;99.90
26063;DHT22;13837;48.562;12.108;2022-12-18T06:16:22;-3.80;99.90
26063;DHT22;13837;48.562;12.108;2022-12-18T06:18:49;-3.80;99.90
26063;DHT22;13837;48.562;12.108;2022-12-18T06:21:14;-3.80;99.90
26063;DHT22;13837;48.562;12.108;2022-12-18T06:23:40;-3.80;99.90
26063;DHT22;13837;48.562;12.108;2022-12-18T06:26:07;-3.80;99.90
26063;DHT22;13837;48.562;12.108;2022-12-18T06:28:33;-3.80;99.90
26063;DHT22;13837;48.562;12.108;2022-12-18T06:30:59;-3.80;99.90
26063;DHT22;13837;48.562;12.108;2022-12-18T06:33:28;-3.90;99.90
26063;DHT22;13837;48.562;12.108;2022-12-18T06:35:58;-3.90;99.90
26063;DHT22;13837;48.562;12.108;2022-12-18T06:38:24;-3.90;99.90
26063;DHT22;13837;48.562;12.108;2022-12-18T06:40:50;-3.80;99.90
26063;DHT22;13837;48.562;12.108;2022-12-18T06:43:16;-3.80;99.90
26063;DHT22;13837;48.562;12.108;2022-12-18T06:45:41;-3.80;99.90
26063;DHT22;13837;48.562;12.108;2022-12-18T06:48:07;-3.80;99.90
26063;DHT22;13837;48.562;12.108;2022-12-18T06:50:33;-3.80;99.90
26063;DHT22;13837;48.562;12.108;2022-12-18T06:52:59;-3.80;99.90
26063;DHT22;13837;48.562;12.108;2022-12-18T06:55:25;-3.80;99.90
26063;DHT22;13837;48.562;12.108;2022-12-18T06:57:51;-3.70;99.90
26063;DHT22;13837;48.562;12.108;2022-12-18T07:00:16;-3.80;99.90
26063;DHT22;13837;48.562;12.108;2022-12-18T07:02:42;-3.70;99.90
26063;DHT22;13837;48.562;12.108;2022-12-18T07:05:08;-3.70;99.90
26063;DHT22;13837;48.562;12.108;2022-12-18T07:07:34;-3.70;99.90
26063;DHT22;13837;48.562;12.108;2022-12-18T07:10:00;-3.70;99.90
26063;DHT22;13837;48.562;12.108;2022-12-18T07:12:28;-3.70;99.90
26063;DHT22;13837;48.562;12.108;2022-12-18T07:14:54;-3.70;99.90
26063;DHT22;13837;48.562;12.108;2022-12-18T07:17:20;-3.70;99.90
26063;DHT22;13837;48.562;12.108;2022-12-18T07:19:45;-3.70;99.90
26063;DHT22;13837;48.562;12.108;2022-12-18T07:22:11;-3.70;99.90
26063;DHT22;13837;48.562;12.108;2022-12-18T07:24:37;-3.60;99.90
26063;DHT22;13837;48.562;12.108;2022-12-18T07:27:03;-3.60;99.90
26063;DHT22;13837;48.562;12.108;2022-12-18T07:29:28;-3.60;99.90
26063;DHT22;13837;48.562;12.108;2022-12-18T07:31:54;-3.60;99.90
26063;DHT22;13837;48.562;12.108;2022-12-18T07:34:20;-3.60;99.90
26063;DHT22;13837;48.562;12.108;2022-12-18T07:36:45;-3.60;99.90
26063;DHT22;13837;48.562;12.108;2022-12-18T07:39:11;-3.60;99.90
26063;DHT22;13837;48.562;12.108;2022-12-18T07:41:37;-3.50;99.90
26063;DHT22;13837;48.562;12.108;2022-12-18T07:44:12;-3.50;99.90
26063;DHT22;13837;48.562;12.108;2022-12-18T07:46:38;-3.50;99.90
26063;DHT22;13837;48.562;12.108;2022-12-18T07:49:04;-3.50;99.90
26063;DHT22;13837;48.562;12.108;2022-12-18T07:51:29;-3.50;99.90
26063;DHT22;13837;48.562;12.108;2022-12-18T07:53:56;-3.50;99.90
26063;DHT22;13837;48.562;12.108;2022-12-18T07:56:22;-3.60;99.90
26063;DHT22;13837;48.562;12.108;2022-12-18T07:58:47;-3.60;99.90
26063;DHT22;13837;48.562;12.108;2022-12-18T08:01:13;-3.50;99.90
26063;DHT22;13837;48.562;12.108;2022-12-18T08:03:40;-3.50;99.90
26063;DHT22;13837;48.562;12.108;2022-12-18T08:06:08;-3.50;99.90
26063;DHT22;13837;48.562;12.108;2022-12-18T08:08:34;-3.40;99.90
26063;DHT22;13837;48.562;12.108;2022-12-18T08:11:01;-3.40;99.90
26063;DHT22;13837;48.562;12.108;2022-12-18T08:13:27;-3.40;99.90
26063;DHT22;13837;48.562;12.108;2022-12-18T08:16:13;-3.30;99.90
26063;DHT22;13837;48.562;12.108;2022-12-18T08:18:39;-3.30;99.90
26063;DHT22;13837;48.562;12.108;2022-12-18T08:21:16;-3.30;99.90
26063;DHT22;13837;48.562;12.108;2022-12-18T08:23:42;-3.30;99.90
26063;DHT22;13837;48.562;12.108;2022-12-18T08:26:08;-3.20;99.90
26063;DHT22;13837;48.562;12.108;2022-12-18T08:28:34;-3.20;99.90
26063;DHT22;13837;48.562;12.108;2022-12-18T08:31:00;-3.20;99.90
26063;DHT22;13837;48.562;12.108;2022-12-18T08:33:26;-3.10;99.90
26063;DHT22;13837;48.562;12.108;2022-12-18T08:35:52;-3.10;99.90
26063;DHT22;13837;48.562;12.108;2022-12-18T08:38:18;-3.10;99.90
26063;DHT22;13837;48.562;12.108;2022-12-18T08:40:44;-3.00;99.90
26063;DHT22;13837;48.562;12.108;2022-12-18T08:43:10;-3.00;99.90
26063;DHT22;13837;48.562;12.108;2022-12-18T08:45:55;-3.00;99.90
26063;DHT22;13837;48.562;12.108;2022-12-18T08:48:21;-3.10;99.90
26063;DHT22;13837;48.562;12.108;2022-12-18T08:50:57;-3.00;99.90
26063;DHT22;13837;48.562;12.108;2022-12-18T08:53:23;-3.10;99.90
26063;DHT22;13837;48.562;12.108;2022-12-18T08:55:49;-3.10;99.90
26063;DHT22;13837;48.562;12.108;2022-12-18T08:58:15;-3.20;99.90
26063;DHT22;13837;48.562;12.108;2022-12-18T09:00:41;-3.20;99.90
26063;DHT22;13837;48.562;12.108;2022-12-18T09:03:15;-3.20;99.90
26063;DHT22;13837;48.562;12.108;2022-12-18T09:05:42;-3.20;99.90
26063;DHT22;13837;48.562;12.108;2022-12-18T09:08:08;-3.20;99.90
26063;DHT22;13837;48.562;12.108;2022-12-18T09:10:34;-3.10;99.90
26063;DHT22;13837;48.562;12.108;2022-12-18T09:12:59;-3.00;99.90
26063;DHT22;13837;48.562;12.108;2022-12-18T09:15:25;-3.00;99.90
26063;DHT22;13837;48.562;12.108;2022-12-18T09:17:51;-3.00;99.90
26063;DHT22;13837;48.562;12.108;2022-12-18T09:20:18;-3.00;99.90
26063;DHT22;13837;48.562;12.108;2022-12-18T09:22:44;-2.90;99.90
26063;DHT22;13837;48.562;12.108;2022-12-18T09:25:10;-2.90;99.90
26063;DHT22;13837;48.562;12.108;2022-12-18T09:27:36;-2.90;99.90
26063;DHT22;13837;48.562;12.108;2022-12-18T09:30:02;-2.80;99.90
26063;DHT22;13837;48.562;12.108;2022-12-18T09:32:28;-2.80;99.90
26063;DHT22;13837;48.562;12.108;2022-12-18T09:34:54;-2.70;99.90
26063;DHT22;13837;48.562;12.108;2022-12-18T09:37:19;-2.80;99.90
26063;DHT22;13837;48.562;12.108;2022-12-18T09:39:45;-2.80;99.90
26063;DHT22;13837;48.562;12.108;2022-12-18T09:42:21;-2.80;99.90
26063;DHT22;13837;48.562;12.108;2022-12-18T09:44:54;-2.90;99.90
26063;DHT22;13837;48.562;12.108;2022-12-18T09:47:30;-2.80;99.90
26063;DHT22;13837;48.562;12.108;2022-12-18T09:50:42;-2.90;99.90
26063;DHT22;13837;48.562;12.108;2022-12-18T09:52:51;-2.90;99.90
26063;DHT22;13837;48.562;12.108;2022-12-18T09:55:28;-2.80;99.90
26063;DHT22;13837;48.562;12.108;2022-12-18T09:58:02;-2.80;99.90
26063;DHT22;13837;48.562;12.108;2022-12-18T10:00:30;-2.70;99.90
26063;DHT22;13837;48.562;12.108;2022-12-18T10:03:22;-2.70;99.90
26063;DHT22;13837;48.562;12.108;2022-12-18T10:06:13;-2.10;99.90
26063;DHT22;13837;48.562;12.108;2022-12-18T10:09:19;-1.00;99.90
26063;DHT22;13837;48.562;12.108;2022-12-18T10:22:54;2.60;99.90
26063;DHT22;13837;48.562;12.108;2022-12-18T10:28:10;3.10;99.90
26063;DHT22;13837;48.562;12.108;2022-12-18T10:30:39;2.60;99.90
26063;DHT22;13837;48.562;12.108;2022-12-18T10:33:05;1.50;99.90
26063;DHT22;13837;48.562;12.108;2022-12-18T10:35:32;0.50;99.90
26063;DHT22;13837;48.562;12.108;2022-12-18T10:40:34;-0.60;99.90
26063;DHT22;13837;48.562;12.108;2022-12-18T10:43:13;-0.80;99.90
26063;DHT22;13837;48.562;12.108;2022-12-18T10:45:40;-1.00;99.90
26063;DHT22;13837;48.562;12.108;2022-12-18T10:48:21;-1.10;99.90
26063;DHT22;13837;48.562;12.108;2022-12-18T10:50:49;-1.30;99.90
26063;DHT22;13837;48.562;12.108;2022-12-18T10:53:29;-1.40;99.90
26063;DHT22;13837;48.562;12.108;2022-12-18T10:55:58;-1.50;99.90
26063;DHT22;13837;48.562;12.108;2022-12-18T10:58:25;-1.60;99.90
26063;DHT22;13837;48.562;12.108;2022-12-18T11:01:08;-1.60;99.90
26063;DHT22;13837;48.562;12.108;2022-12-18T11:06:13;-1.50;99.90
26063;DHT22;13837;48.562;12.108;2022-12-18T11:08:41;-1.50;99.90
26063;DHT22;13837;48.562;12.108;2022-12-18T11:11:18;-1.50;99.90
26063;DHT22;13837;48.562;12.108;2022-12-18T11:14:01;-1.50;99.90
26063;DHT22;13837;48.562;12.108;2022-12-18T11:16:29;-1.60;99.90
26063;DHT22;13837;48.562;12.108;2022-12-18T11:21:41;-1.70;99.90
26063;DHT22;13837;48.562;12.108;2022-12-18T11:24:30;-1.70;99.90
26063;DHT22;13837;48.562;12.108;2022-12-18T11:27:05;-1.70;99.90
26063;DHT22;13837;48.562;12.108;2022-12-18T11:29:34;-1.70;99.90
26063;DHT22;13837;48.562;12.108;2022-12-18T11:34:47;-1.80;99.90
26063;DHT22;13837;48.562;12.108;2022-12-18T11:37:13;-1.90;99.90
26063;DHT22;13837;48.562;12.108;2022-12-18T11:40:04;-1.90;99.90
26063;DHT22;13837;48.562;12.108;2022-12-18T11:43:02;-1.90;99.90
26063;DHT22;13837;48.562;12.108;2022-12-18T11:45:35;-1.80;99.90
26063;DHT22;13837;48.562;12.108;2022-12-18T11:48:17;-1.70;99.90
26063;DHT22;13837;48.562;12.108;2022-12-18T11:53:17;-1.70;99.90
26063;DHT22;13837;48.562;12.108;2022-12-18T11:58:46;-1.70;99.90
26063;DHT22;13837;48.562;12.108;2022-12-18T12:15:28;-1.70;99.90
26063;DHT22;13837;48.562;12.108;2022-12-18T12:21:01;-1.60;99.90
26063;DHT22;13837;48.562;12.108;2022-12-18T12:29:09;-1.50;99.90
26063;DHT22;13837;48.562;12.108;2022-12-18T12:31:49;-1.50;99.90
26063;DHT22;13837;48.562;12.108;2022-12-18T12:36:59;-1.70;99.90
26063;DHT22;13837;48.562;12.108;2022-12-18T12:39:31;-1.80;99.90
26063;DHT22;13837;48.562;12.108;2022-12-18T12:41:59;-1.90;99.90
26063;DHT22;13837;48.562;12.108;2022-12-18T12:44:48;-2.00;99.90
26063;DHT22;13837;48.562;12.108;2022-12-18T12:47:25;-2.00;99.90
26063;DHT22;13837;48.562;12.108;2022-12-18T12:49:53;-2.10;99.90
26063;DHT22;13837;48.562;12.108;2022-12-18T12:53:05;-2.10;99.90
26063;DHT22;13837;48.562;12.108;2022-12-18T12:55:26;-2.30;99.90
26063;DHT22;13837;48.562;12.108;2022-12-18T13:00:27;-2.50;99.90
26063;DHT22;13837;48.562;12.108;2022-12-18T13:03:26;-2.40;99.90
26063;DHT22;13837;48.562;12.108;2022-12-18T13:06:00;-2.20;99.90
26063;DHT22;13837;48.562;12.108;2022-12-18T13:08:50;-2.30;99.90
26063;DHT22;13837;48.562;12.108;2022-12-18T13:11:36;-2.30;99.90
26063;DHT22;13837;48.562;12.108;2022-12-18T13:14:32;-2.30;99.90
26063;DHT22;13837;48.562;12.108;2022-12-18T13:20:02;-2.40;99.90
26063;DHT22;13837;48.562;12.108;2022-12-18T13:22:33;-2.40;99.90
26063;DHT22;13837;48.562;12.108;2022-12-18T13:24:59;-2.40;99.90
26063;DHT22;13837;48.562;12.108;2022-12-18T13:38:35;-2.50;99.90
26063;DHT22;13837;48.562;12.108;2022-12-18T13:46:00;-2.30;99.90
26063;DHT22;13837;48.562;12.108;2022-12-18T13:48:28;-2.30;99.90
26063;DHT22;13837;48.562;12.108;2022-12-18T13:50:59;-2.40;99.90
26063;DHT22;13837;48.562;12.108;2022-12-18T13:53:53;-2.40;99.90
26063;DHT22;13837;48.562;12.108;2022-12-18T13:56:28;-2.40;99.90
26063;DHT22;13837;48.562;12.108;2022-12-18T13:59:11;-2.40;99.90
26063;DHT22;13837;48.562;12.108;2022-12-18T14:01:49;-2.40;99.90
26063;DHT22;13837;48.562;12.108;2022-12-18T14:04:29;-2.40;99.90
26063;DHT22;13837;48.562;12.108;2022-12-18T14:07:16;-2.40;99.90
26063;DHT22;13837;48.562;12.108;2022-12-18T14:09:49;-2.50;99.90
26063;DHT22;13837;48.562;12.108;2022-12-18T14:12:22;-2.50;99.90
26063;DHT22;13837;48.562;12.108;2022-12-18T14:15:32;-2.50;99.90
26063;DHT22;13837;48.562;12.108;2022-12-18T14:18:21;-2.50;99.90
26063;DHT22;13837;48.562;12.108;2022-12-18T14:20:50;-2.50;99.90
26063;DHT22;13837;48.562;12.108;2022-12-18T14:23:39;-2.50;99.90
26063;DHT22;13837;48.562;12.108;2022-12-18T14:26:27;-2.40;99.90
26063;DHT22;13837;48.562;12.108;2022-12-18T14:28:59;-2.20;99.90
26063;DHT22;13837;48.562;12.108;2022-12-18T14:31:31;-2.30;99.90
26063;DHT22;13837;48.562;12.108;2022-12-18T14:33:57;-2.30;99.90
26063;DHT22;13837;48.562;12.108;2022-12-18T14:36:25;-2.30;99.90
26063;DHT22;13837;48.562;12.108;2022-12-18T14:38:58;-2.30;99.90
26063;DHT22;13837;48.562;12.108;2022-12-18T14:41:25;-2.30;99.90
26063;DHT22;13837;48.562;12.108;2022-12-18T14:43:53;-2.40;99.90
26063;DHT22;13837;48.562;12.108;2022-12-18T14:46:39;-2.40;99.90
26063;DHT22;13837;48.562;12.108;2022-12-18T14:49:33;-2.50;99.90
26063;DHT22;13837;48.562;12.108;2022-12-18T14:52:02;-2.50;99.90
26063;DHT22;13837;48.562;12.108;2022-12-18T14:54:29;-2.50;99.90
26063;DHT22;13837;48.562;12.108;2022-12-18T14:59:30;-2.50;99.90
26063;DHT22;13837;48.562;12.108;2022-12-18T15:04:41;-2.60;99.90
26063;DHT22;13837;48.562;12.108;2022-12-18T15:07:19;-2.70;99.90
26063;DHT22;13837;48.562;12.108;2022-12-18T15:10:11;-2.70;99.90
26063;DHT22;13837;48.562;12.108;2022-12-18T15:12:39;-2.70;99.90
26063;DHT22;13837;48.562;12.108;2022-12-18T15:15:41;-2.80;99.90
26063;DHT22;13837;48.562;12.108;2022-12-18T15:18:00;-2.90;99.90
26063;DHT22;13837;48.562;12.108;2022-12-18T15:20:27;-2.90;99.90
26063;DHT22;13837;48.562;12.108;2022-12-18T15:22:53;-2.90;99.90
26063;DHT22;13837;48.562;12.108;2022-12-18T15:25:37;-3.00;99.90
26063;DHT22;13837;48.562;12.108;2022-12-18T15:28:22;-2.90;99.90
26063;DHT22;13837;48.562;12.108;2022-12-18T15:31:33;-3.00;99.90
26063;DHT22;13837;48.562;12.108;2022-12-18T15:36:33;-3.00;99.90
26063;DHT22;13837;48.562;12.108;2022-12-18T15:39:02;-3.00;99.90
26063;DHT22;13837;48.562;12.108;2022-12-18T15:41:32;-3.10;99.90
26063;DHT22;13837;48.562;12.108;2022-12-18T15:43:59;-3.20;99.90
26063;DHT22;13837;48.562;12.108;2022-12-18T15:46:25;-3.30;99.90
26063;DHT22;13837;48.562;12.108;2022-12-18T15:48:54;-3.40;99.90
26063;DHT22;13837;48.562;12.108;2022-12-18T15:51:23;-3.40;99.90
26063;DHT22;13837;48.562;12.108;2022-12-18T15:53:52;-3.40;99.90
26063;DHT22;13837;48.562;12.108;2022-12-18T15:56:19;-3.40;99.90
26063;DHT22;13837;48.562;12.108;2022-12-18T15:59:09;-3.50;99.90
26063;DHT22;13837;48.562;12.108;2022-12-18T16:01:35;-3.50;99.90
26063;DHT22;13837;48.562;12.108;2022-12-18T16:04:01;-3.60;99.90
26063;DHT22;13837;48.562;12.108;2022-12-18T16:06:27;-3.60;99.90
26063;DHT22;13837;48.562;12.108;2022-12-18T16:08:52;-3.60;99.90
26063;DHT22;13837;48.562;12.108;2022-12-18T16:11:24;-3.70;99.90
26063;DHT22;13837;48.562;12.108;2022-12-18T16:16:39;-3.60;99.90
26063;DHT22;13837;48.562;12.108;2022-12-18T16:19:05;-3.70;99.90
26063;DHT22;13837;48.562;12.108;2022-12-18T16:21:31;-3.70;99.90
26063;DHT22;13837;48.562;12.108;2022-12-18T16:23:56;-3.70;99.90
26063;DHT22;13837;48.562;12.108;2022-12-18T16:26:22;-3.90;99.90
26063;DHT22;13837;48.562;12.108;2022-12-18T16:28:48;-3.90;99.90
26063;DHT22;13837;48.562;12.108;2022-12-18T16:31:13;-4.10;99.90
26063;DHT22;13837;48.562;12.108;2022-12-18T16:33:39;-4.10;99.90
26063;DHT22;13837;48.562;12.108;2022-12-18T16:36:05;-4.20;99.90
26063;DHT22;13837;48.562;12.108;2022-12-18T16:38:31;-4.20;99.90
26063;DHT22;13837;48.562;12.108;2022-12-18T16:40:56;-4.30;99.90
26063;DHT22;13837;48.562;12.108;2022-12-18T16:43:40;-4.30;99.90
26063;DHT22;13837;48.562;12.108;2022-12-18T16:46:06;-4.30;99.90
26063;DHT22;13837;48.562;12.108;2022-12-18T16:48:32;-4.30;99.90
26063;DHT22;13837;48.562;12.108;2022-12-18T16:51:03;-4.40;99.90
26063;DHT22;13837;48.562;12.108;2022-12-18T16:53:31;-4.50;99.90
26063;DHT22;13837;48.562;12.108;2022-12-18T16:55:57;-4.50;99.90
26063;DHT22;13837;48.562;12.108;2022-12-18T16:58:23;-4.60;99.90
26063;DHT22;13837;48.562;12.108;2022-12-18T17:00:49;-4.60;99.90
26063;DHT22;13837;48.562;12.108;2022-12-18T17:03:15;-4.60;99.90
26063;DHT22;13837;48.562;12.108;2022-12-18T17:05:40;-4.70;99.90
26063;DHT22;13837;48.562;12.108;2022-12-18T17:08:06;-4.60;99.90
26063;DHT22;13837;48.562;12.108;2022-12-18T17:10:34;-4.60;99.90
26063;DHT22;13837;48.562;12.108;2022-12-18T17:13:00;-4.70;99.90
26063;DHT22;13837;48.562;12.108;2022-12-18T17:15:26;-4.80;99.90
26063;DHT22;13837;48.562;12.108;2022-12-18T17:17:52;-4.80;99.90
26063;DHT22;13837;48.562;12.108;2022-12-18T17:20:18;-4.80;99.90
26063;DHT22;13837;48.562;12.108;2022-12-18T17:22:46;-4.80;99.90
26063;DHT22;13837;48.562;12.108;2022-12-18T17:25:12;-4.80;99.90
26063;DHT22;13837;48.562;12.108;2022-12-18T17:27:38;-4.90;99.90
26063;DHT22;13837;48.562;12.108;2022-12-18T17:30:05;-4.80;99.90